createdAt,value
2022-11-19T00:01:32.980Z,6.38
2022-11-19T00:04:08.292Z,6.43
2022-11-19T00:09:14.739Z,9.23
2022-11-19T00:12:02.695Z,6.28
2022-11-19T00:14:35.465Z,6.22
2022-11-19T00:17:08.135Z,5.18
2022-11-19T00:19:40.836Z,5.40
2022-11-19T00:22:13.482Z,6.22
2022-11-19T00:24:46.159Z,6.32
2022-11-19T00:27:18.850Z,3.65
2022-11-19T00:29:51.443Z,4.45
2022-11-19T00:32:24.150Z,4.45
2022-11-19T00:34:56.894Z,5.80
2022-11-19T00:37:29.565Z,7.25
2022-11-19T00:40:02.172Z,7.70
2022-11-19T00:42:35.646Z,5.30
2022-11-19T00:45:09.908Z,7.70
2022-11-19T00:47:42.528Z,4.60
2022-11-19T00:50:15.473Z,5.28
2022-11-19T00:52:48.230Z,5.35
2022-11-19T00:55:20.895Z,6.45
2022-11-19T00:57:53.563Z,6.28
2022-11-19T01:00:26.197Z,4.88
2022-11-19T01:02:59.055Z,4.68
2022-11-19T01:05:31.921Z,5.72
2022-11-19T01:08:05.126Z,5.15
2022-11-19T01:10:37.900Z,3.72
2022-11-19T01:13:25.911Z,4.65
2022-11-19T01:15:58.530Z,5.45
2022-11-19T01:18:31.549Z,6.03
2022-11-19T01:21:06.079Z,4.18
2022-11-19T01:23:39.987Z,3.75
2022-11-19T01:26:13.788Z,6.53
2022-11-19T01:28:47.331Z,6.63
2022-11-19T01:31:23.839Z,5.70
2022-11-19T01:33:57.063Z,5.82
2022-11-19T01:36:30.826Z,5.85
2022-11-19T01:39:04.039Z,6.35
2022-11-19T01:41:36.589Z,8.73
2022-11-19T01:44:37.424Z,8.20
2022-11-19T01:47:10.220Z,7.75
2022-11-19T01:49:42.874Z,5.45
2022-11-19T01:52:15.642Z,5.25
2022-11-19T01:54:51.885Z,7.18
2022-11-19T01:57:24.471Z,4.82
2022-11-19T01:59:57.074Z,4.13
2022-11-19T02:02:29.769Z,4.35
2022-11-19T02:05:03.543Z,8.30
2022-11-19T02:07:38.573Z,6.00
2022-11-19T02:10:11.807Z,4.80
2022-11-19T02:13:04.334Z,4.88
2022-11-19T02:15:41.515Z,6.82
2022-11-19T02:18:36.634Z,5.38
2022-11-19T02:21:13.056Z,8.35
2022-11-19T02:23:54.154Z,4.53
2022-11-19T02:26:31.160Z,4.88
2022-11-19T02:29:19.946Z,7.72
2022-11-19T02:31:59.852Z,4.88
2022-11-19T02:34:42.151Z,5.55
2022-11-19T02:37:33.090Z,8.18
2022-11-19T02:40:24.541Z,4.47
2022-11-19T02:43:00.954Z,5.00
2022-11-19T02:45:43.657Z,6.55
2022-11-19T02:48:24.290Z,9.18
2022-11-19T02:51:00.557Z,4.38
2022-11-19T02:53:33.907Z,5.55
2022-11-19T02:56:35.345Z,3.88
2022-11-19T02:59:23.599Z,4.25
2022-11-19T03:02:12.157Z,4.57
2022-11-19T03:04:44.919Z,5.15
2022-11-19T03:07:20.043Z,7.00
2022-11-19T03:09:58.007Z,4.28
2022-11-19T03:12:45.471Z,4.55
2022-11-19T03:15:58.688Z,6.03
2022-11-19T03:18:38.847Z,7.82
2022-11-19T03:21:22.243Z,10.60
2022-11-19T03:24:00.978Z,7.03
2022-11-19T03:26:42.651Z,7.75
2022-11-19T03:29:16.359Z,8.82
2022-11-19T03:31:54.094Z,6.93
2022-11-19T03:34:30.374Z,7.80
2022-11-19T03:37:05.463Z,7.45
2022-11-19T03:39:39.223Z,7.57
2022-11-19T03:42:14.981Z,9.02
2022-11-19T03:44:51.509Z,8.13
2022-11-19T03:47:30.518Z,9.32
2022-11-19T03:50:11.907Z,7.40
2022-11-19T03:52:44.919Z,9.73
2022-11-19T03:55:17.702Z,8.48
2022-11-19T03:57:51.829Z,6.63
2022-11-19T04:00:24.581Z,6.78
2022-11-19T04:02:57.587Z,6.80
2022-11-19T04:05:30.323Z,8.07
2022-11-19T04:08:02.892Z,7.22
2022-11-19T04:10:35.658Z,6.50
2022-11-19T04:13:09.162Z,6.50
2022-11-19T04:15:41.681Z,7.60
2022-11-19T04:18:14.286Z,6.45
2022-11-19T04:20:46.993Z,7.50
2022-11-19T04:23:19.575Z,9.57
2022-11-19T04:25:52.245Z,8.35
2022-11-19T04:28:24.893Z,9.70
2022-11-19T04:30:57.591Z,6.63
2022-11-19T04:33:30.273Z,10.75
2022-11-19T04:36:03.144Z,6.40
2022-11-19T04:38:35.801Z,5.75
2022-11-19T04:41:09.388Z,7.65
2022-11-19T04:43:41.876Z,9.70
2022-11-19T04:46:15.646Z,8.95
2022-11-19T04:48:48.258Z,7.95
2022-11-19T04:51:21.018Z,8.25
2022-11-19T04:53:55.238Z,7.47
2022-11-19T04:56:28.029Z,6.13
2022-11-19T04:59:00.731Z,6.40
2022-11-19T05:01:33.524Z,7.57
2022-11-19T05:04:06.341Z,7.88
2022-11-19T05:06:39.216Z,10.05
2022-11-19T05:09:11.868Z,8.80
2022-11-19T05:11:44.537Z,6.60
2022-11-19T05:14:17.251Z,7.13
2022-11-19T05:16:49.931Z,7.18
2022-11-19T05:19:22.500Z,7.47
2022-11-19T05:21:55.108Z,7.90
2022-11-19T05:24:27.696Z,9.25
2022-11-19T05:27:00.333Z,11.50
2022-11-19T05:29:32.970Z,6.95
2022-11-19T05:32:05.764Z,7.97
2022-11-19T05:34:38.467Z,6.45
2022-11-19T05:37:11.281Z,7.55
2022-11-19T05:39:44.771Z,7.00
2022-11-19T05:42:17.471Z,8.05
2022-11-19T05:44:50.258Z,7.15
2022-11-19T05:47:22.935Z,7.57
2022-11-19T05:49:55.756Z,7.32
2022-11-19T05:52:29.087Z,11.13
2022-11-19T05:55:02.338Z,7.28
2022-11-19T05:57:35.136Z,8.57
2022-11-19T06:00:09.468Z,7.72
2022-11-19T06:02:45.443Z,7.88
2022-11-19T06:05:18.274Z,8.38
2022-11-19T06:07:51.027Z,8.10
2022-11-19T06:10:23.712Z,9.57
2022-11-19T06:12:56.683Z,8.45
2022-11-19T06:15:29.298Z,7.28
2022-11-19T06:18:02.154Z,7.78
2022-11-19T06:20:34.779Z,7.57
2022-11-19T06:23:08.345Z,9.05
2022-11-19T06:25:40.978Z,7.78
2022-11-19T06:28:13.676Z,10.02
2022-11-19T06:30:46.243Z,8.98
2022-11-19T06:33:19.005Z,7.40
2022-11-19T06:35:51.609Z,7.18
2022-11-19T06:38:24.241Z,7.03
2022-11-19T06:40:56.826Z,8.65
2022-11-19T06:43:29.475Z,8.63
2022-11-19T06:46:02.162Z,9.02
2022-11-19T06:48:34.832Z,9.63
2022-11-19T06:51:08.057Z,9.90
2022-11-19T06:53:40.834Z,8.82
2022-11-19T06:56:13.559Z,10.38
2022-11-19T06:58:46.325Z,10.70
2022-11-19T07:01:18.955Z,10.38
2022-11-19T07:03:51.663Z,44.83
2022-11-19T07:06:24.369Z,19.98
2022-11-19T07:08:57.112Z,8.85
2022-11-19T07:11:29.961Z,8.88
2022-11-19T07:14:04.408Z,8.02
2022-11-19T07:16:37.612Z,9.68
2022-11-19T07:19:10.346Z,7.70
2022-11-19T07:21:42.869Z,13.13
2022-11-19T07:24:17.339Z,10.00
2022-11-19T07:26:50.010Z,12.45
2022-11-19T07:29:22.953Z,8.95
2022-11-19T07:31:55.865Z,13.23
2022-11-19T07:34:28.598Z,7.90
2022-11-19T07:37:01.337Z,19.25
2022-11-19T07:39:35.140Z,20.45
2022-11-19T07:42:24.445Z,26.05
2022-11-19T07:44:58.434Z,17.33
2022-11-19T07:47:31.164Z,18.27
2022-11-19T07:50:04.661Z,20.80
2022-11-19T07:52:37.773Z,20.40
2022-11-19T07:55:10.701Z,17.45
2022-11-19T07:57:43.458Z,15.73
2022-11-19T08:00:16.249Z,12.65
2022-11-19T08:02:50.358Z,12.85
2022-11-19T08:05:23.052Z,12.82
2022-11-19T08:07:55.713Z,10.75
2022-11-19T08:10:31.748Z,38.38
2022-11-19T08:13:04.765Z,13.38
2022-11-19T08:15:37.536Z,11.13
2022-11-19T08:18:12.849Z,14.57
2022-11-19T08:23:21.576Z,10.75
2022-11-19T08:25:54.315Z,15.43
2022-11-19T08:28:27.669Z,16.70
2022-11-19T08:31:09.249Z,19.25
2022-11-19T08:33:41.970Z,11.63
2022-11-19T08:36:14.673Z,9.45
2022-11-19T08:38:47.333Z,9.73
2022-11-19T08:41:35.358Z,12.52
2022-11-19T08:44:08.131Z,8.68
2022-11-19T08:46:41.543Z,7.18
2022-11-19T08:49:14.492Z,10.25
2022-11-19T08:51:47.098Z,13.52
2022-11-19T08:54:19.895Z,18.38
2022-11-19T08:56:52.556Z,13.50
2022-11-19T08:59:25.400Z,12.30
2022-11-19T09:01:58.003Z,8.45
2022-11-19T09:04:30.581Z,9.07
2022-11-19T09:07:03.315Z,9.82
2022-11-19T09:09:36.034Z,13.15
2022-11-19T09:12:09.812Z,11.77
2022-11-19T09:14:42.484Z,13.77
2022-11-19T09:17:15.169Z,12.18
2022-11-19T09:19:48.280Z,10.02
2022-11-19T09:22:21.150Z,10.88
2022-11-19T09:24:53.771Z,16.10
2022-11-19T09:27:26.406Z,13.82
2022-11-19T09:29:59.487Z,15.52
2022-11-19T09:32:32.326Z,16.25
2022-11-19T09:35:05.642Z,15.80
2022-11-19T09:37:38.458Z,17.92
2022-11-19T09:40:20.070Z,16.70
2022-11-19T09:43:14.960Z,17.98
2022-11-19T09:46:04.173Z,42.92
2022-11-19T09:48:39.282Z,21.77
2022-11-19T09:51:16.937Z,15.73
2022-11-19T09:53:56.039Z,15.90
2022-11-19T09:56:35.365Z,16.27
2022-11-19T09:59:21.107Z,15.60
2022-11-19T10:04:31.279Z,18.58
2022-11-19T10:07:07.069Z,22.58
2022-11-19T10:10:01.744Z,23.73
2022-11-19T10:12:50.313Z,20.13
2022-11-19T10:15:44.729Z,21.75
2022-11-19T10:18:30.274Z,21.85
2022-11-19T10:23:55.019Z,25.73
2022-11-19T10:26:34.787Z,29.80
2022-11-19T10:29:25.189Z,25.17
2022-11-19T10:32:14.451Z,19.63
2022-11-19T10:34:49.226Z,21.80
2022-11-19T10:37:24.389Z,19.90
2022-11-19T10:40:04.212Z,20.80
2022-11-19T10:42:40.186Z,20.30
2022-11-19T10:45:27.395Z,23.20
2022-11-19T10:48:09.416Z,22.45
2022-11-19T10:50:42.671Z,20.40
2022-11-19T10:53:22.690Z,25.13
2022-11-19T10:56:01.861Z,22.15
2022-11-19T10:58:36.863Z,52.20
2022-11-19T11:01:28.781Z,30.20
2022-11-19T11:04:20.488Z,22.73
2022-11-19T11:06:57.912Z,21.95
2022-11-19T11:09:38.596Z,31.08
2022-11-19T11:12:29.243Z,22.50
2022-11-19T11:15:16.532Z,24.60
2022-11-19T11:18:01.161Z,27.13
2022-11-19T11:20:34.537Z,25.05
2022-11-19T11:23:12.780Z,24.30
2022-11-19T11:26:02.602Z,19.80
2022-11-19T11:28:36.399Z,24.15
2022-11-19T11:31:11.588Z,21.23
2022-11-19T11:33:56.178Z,18.00
2022-11-19T11:36:32.140Z,18.02
2022-11-19T11:39:06.363Z,18.73
2022-11-19T11:44:38.052Z,16.00
2022-11-19T11:47:15.881Z,17.70
2022-11-19T11:49:58.139Z,20.70
2022-11-19T11:52:40.202Z,17.42
2022-11-19T11:55:29.669Z,18.17
2022-11-19T11:58:06.629Z,17.70
2022-11-19T12:00:40.977Z,18.38
2022-11-19T12:03:16.866Z,23.60
2022-11-19T12:06:10.490Z,21.83
2022-11-19T12:09:00.488Z,16.75
2022-11-19T12:11:56.888Z,17.80
2022-11-19T12:14:32.550Z,18.58
2022-11-19T12:17:35.978Z,17.70
2022-11-19T12:20:31.591Z,22.58
2022-11-19T12:23:19.892Z,20.33
2022-11-19T12:26:00.457Z,17.35
2022-11-19T12:28:46.715Z,18.90
2022-11-19T12:31:42.301Z,22.30
2022-11-19T12:34:37.618Z,24.60
2022-11-19T12:37:26.115Z,22.83
2022-11-19T12:40:20.069Z,22.50
2022-11-19T12:43:03.765Z,24.65
2022-11-19T12:45:40.020Z,33.40
2022-11-19T12:48:29.062Z,55.22
2022-11-19T12:51:12.358Z,34.58
2022-11-19T12:53:54.439Z,42.35
2022-11-19T12:56:46.907Z,41.45
2022-11-19T12:59:50.688Z,34.88
2022-11-19T13:02:30.294Z,30.48
2022-11-19T13:05:14.929Z,31.80
2022-11-19T13:07:57.655Z,31.92
2022-11-19T13:10:37.506Z,31.15
2022-11-19T13:13:16.355Z,31.20
2022-11-19T13:15:58.545Z,38.63
2022-11-19T13:18:35.239Z,56.33
2022-11-19T13:21:31.138Z,51.63
2022-11-19T13:24:20.549Z,60.80
2022-11-19T13:26:56.947Z,60.75
2022-11-19T13:29:38.069Z,65.43
2022-11-19T13:32:30.827Z,70.50
2022-11-19T13:35:23.089Z,85.10
2022-11-19T13:38:17.326Z,92.95
2022-11-19T13:40:53.379Z,89.88
2022-11-19T13:43:42.309Z,78.30
2022-11-19T13:46:21.871Z,74.75
2022-11-19T13:49:14.701Z,71.20
2022-11-19T13:51:55.614Z,63.90
2022-11-19T13:54:36.291Z,74.63
2022-11-19T13:57:24.002Z,69.22
2022-11-19T14:00:07.093Z,58.38
2022-11-19T14:03:03.885Z,55.78
2022-11-19T14:06:05.746Z,63.80
2022-11-19T14:09:09.327Z,74.13
2022-11-19T14:12:05.994Z,69.18
2022-11-19T14:15:19.138Z,68.57
2022-11-19T14:18:28.113Z,68.50
2022-11-19T14:21:47.675Z,66.63
2022-11-19T14:24:43.811Z,74.00
2022-11-19T14:30:00.563Z,55.35
2022-11-19T14:32:37.587Z,57.72
2022-11-19T14:35:28.325Z,56.42
2022-11-19T14:38:17.727Z,60.75
2022-11-19T14:41:03.835Z,61.70
2022-11-19T14:44:16.618Z,61.40
2022-11-19T14:46:49.938Z,61.50
2022-11-19T14:49:35.993Z,59.65
2022-11-19T14:52:22.085Z,57.88
2022-11-19T14:54:58.879Z,62.17
2022-11-19T14:57:38.852Z,59.95
2022-11-19T15:00:15.617Z,66.85
2022-11-19T15:02:52.768Z,61.22
2022-11-19T15:05:28.520Z,52.38
2022-11-19T15:08:18.828Z,54.42
2022-11-19T15:11:07.847Z,55.92
2022-11-19T15:13:42.547Z,61.15
2022-11-19T15:16:20.157Z,64.28
2022-11-19T15:19:23.760Z,57.72
2022-11-19T15:21:58.202Z,61.25
2022-11-19T15:24:53.829Z,59.53
2022-11-19T15:27:38.868Z,56.92
2022-11-19T15:30:21.958Z,61.30
2022-11-19T15:33:16.177Z,57.40
2022-11-19T15:36:07.677Z,55.95
2022-11-19T15:38:47.155Z,50.95
2022-11-19T15:41:25.089Z,54.85
2022-11-19T15:44:01.171Z,63.95
2022-11-19T15:46:49.872Z,59.63
2022-11-19T15:49:28.981Z,56.33
2022-11-19T15:52:17.715Z,56.15
2022-11-19T15:54:50.873Z,55.20
2022-11-19T15:57:26.410Z,50.80
2022-11-19T16:00:02.504Z,60.38
2022-11-19T16:02:43.956Z,67.22
2022-11-19T16:07:56.689Z,53.05
2022-11-19T16:10:32.126Z,55.25
2022-11-19T16:13:37.668Z,51.50
2022-11-19T16:16:42.843Z,65.60
2022-11-19T16:19:17.287Z,58.42
2022-11-19T16:21:57.341Z,57.38
2022-11-19T16:24:48.348Z,58.42
2022-11-19T16:27:24.494Z,59.63
2022-11-19T16:29:58.016Z,55.05
2022-11-19T16:32:30.943Z,62.05
2022-11-19T16:35:20.625Z,58.88
2022-11-19T16:37:55.344Z,62.08
2022-11-19T16:40:49.660Z,56.83
2022-11-19T16:43:22.910Z,56.15
2022-11-19T16:45:56.226Z,63.03
2022-11-19T16:49:00.310Z,62.60
2022-11-19T16:51:36.404Z,61.90
2022-11-19T16:54:11.469Z,59.13
2022-11-19T16:56:46.078Z,64.50
2022-11-19T16:59:22.136Z,66.47
2022-11-19T17:02:00.164Z,58.83
2022-11-19T17:04:33.024Z,58.60
2022-11-19T17:07:06.346Z,57.65
2022-11-19T17:09:45.080Z,61.42
2022-11-19T17:12:27.929Z,58.03
2022-11-19T17:15:02.645Z,59.92
2022-11-19T17:17:40.786Z,60.90
2022-11-19T17:20:30.779Z,52.95
2022-11-19T17:23:11.550Z,54.40
2022-11-19T17:25:51.997Z,57.20
2022-11-19T17:28:45.765Z,63.40
2022-11-19T17:31:26.529Z,69.05
2022-11-19T17:34:22.461Z,66.28
2022-11-19T17:39:28.128Z,69.38
2022-11-19T17:42:17.001Z,77.68
2022-11-19T17:44:50.170Z,73.88
2022-11-19T17:47:23.993Z,67.35
2022-11-19T17:49:57.380Z,74.20
2022-11-19T17:52:31.580Z,79.25
2022-11-19T17:55:22.781Z,77.20
2022-11-19T17:57:56.044Z,114.38
2022-11-19T18:00:28.810Z,95.80
2022-11-19T18:03:03.249Z,110.18
2022-11-19T18:05:38.807Z,76.32
2022-11-19T18:10:47.584Z,69.90
2022-11-19T18:13:25.966Z,66.82
2022-11-19T18:15:58.804Z,66.03
2022-11-19T18:18:31.659Z,64.55
2022-11-19T18:21:04.535Z,68.78
2022-11-19T18:23:37.726Z,65.75
2022-11-19T18:26:12.845Z,69.53
2022-11-19T18:28:49.213Z,65.05
2022-11-19T18:31:27.260Z,66.10
2022-11-19T18:34:00.026Z,66.38
2022-11-19T18:36:32.970Z,61.38
2022-11-19T18:39:05.816Z,65.72
2022-11-19T18:41:39.107Z,65.97
2022-11-19T18:44:30.164Z,57.20
2022-11-19T18:47:06.976Z,62.95
2022-11-19T18:49:39.941Z,62.53
2022-11-19T18:52:15.738Z,57.40
2022-11-19T18:54:48.950Z,57.97
2022-11-19T18:57:21.838Z,65.78
2022-11-19T18:59:54.580Z,64.07
2022-11-19T19:02:27.484Z,65.30
2022-11-19T19:05:00.336Z,69.50
2022-11-19T19:07:33.364Z,57.72
2022-11-19T19:10:06.990Z,51.55
2022-11-19T19:12:40.166Z,51.33
2022-11-19T19:15:13.192Z,59.97
2022-11-19T19:17:46.088Z,45.00
2022-11-19T19:20:18.956Z,42.88
2022-11-19T19:22:51.762Z,44.85
2022-11-19T19:25:24.510Z,42.47
2022-11-19T19:27:57.215Z,36.08
2022-11-19T19:30:29.969Z,45.47
2022-11-19T19:33:03.338Z,41.83
2022-11-19T19:35:38.986Z,46.77
2022-11-19T19:38:11.671Z,37.67
2022-11-19T19:40:44.518Z,36.85
2022-11-19T19:43:17.288Z,39.92
2022-11-19T19:45:50.055Z,35.65
2022-11-19T19:48:23.247Z,34.85
2022-11-19T19:50:55.899Z,40.70
2022-11-19T19:53:28.894Z,34.40
2022-11-19T19:56:04.766Z,35.08
2022-11-19T19:58:39.108Z,36.80
2022-11-19T20:01:15.369Z,53.80
2022-11-19T20:03:54.306Z,35.25
2022-11-19T20:06:28.797Z,37.50
2022-11-19T20:09:07.925Z,36.58
2022-11-19T20:11:42.610Z,42.75
2022-11-19T20:14:15.330Z,34.40
2022-11-19T20:16:48.057Z,34.22
2022-11-19T20:19:21.086Z,39.60
2022-11-19T20:21:54.775Z,40.03
2022-11-19T20:24:27.540Z,35.03
2022-11-19T20:27:00.336Z,37.42
2022-11-19T20:29:33.139Z,37.33
2022-11-19T20:32:05.901Z,37.58
2022-11-19T20:34:39.598Z,45.38
2022-11-19T20:37:12.208Z,45.25
2022-11-19T20:39:44.926Z,45.30
2022-11-19T20:42:32.958Z,47.97
2022-11-19T20:45:06.260Z,44.13
2022-11-19T20:47:39.143Z,48.20
2022-11-19T20:50:12.034Z,47.08
2022-11-19T20:52:44.807Z,44.10
2022-11-19T20:55:17.670Z,46.35
2022-11-19T20:57:50.361Z,45.03
2022-11-19T21:00:23.067Z,48.13
2022-11-19T21:02:56.102Z,50.30
2022-11-19T21:05:28.693Z,45.47
2022-11-19T21:08:01.584Z,45.40
2022-11-19T21:10:34.488Z,48.22
2022-11-19T21:13:07.342Z,47.85
2022-11-19T21:15:40.089Z,50.33
2022-11-19T21:18:12.790Z,53.28
2022-11-19T21:20:45.608Z,59.13
2022-11-19T21:23:19.570Z,57.40
2022-11-19T21:25:52.323Z,53.78
2022-11-19T21:28:25.227Z,54.92
2022-11-19T21:30:57.890Z,54.60
2022-11-19T21:33:30.664Z,52.15
2022-11-19T21:36:05.014Z,49.40
2022-11-19T21:38:37.714Z,36.90
2022-11-19T21:41:10.563Z,38.88
2022-11-19T21:43:43.125Z,38.33
2022-11-19T21:46:15.747Z,43.70
2022-11-19T21:48:48.428Z,38.30
2022-11-19T21:51:24.666Z,36.30
2022-11-19T21:53:58.804Z,36.10
2022-11-19T21:56:38.019Z,35.38
2022-11-19T21:59:12.318Z,35.85
2022-11-19T22:01:45.074Z,38.78
2022-11-19T22:04:17.796Z,34.65
2022-11-19T22:06:50.354Z,38.15
2022-11-19T22:09:23.145Z,39.70
2022-11-19T22:11:56.005Z,36.22
2022-11-19T22:14:28.604Z,42.75
2022-11-19T22:17:01.654Z,39.50
2022-11-19T22:19:34.327Z,37.83
2022-11-19T22:22:06.998Z,39.47
2022-11-19T22:24:39.670Z,38.70
2022-11-19T22:27:12.473Z,35.20
2022-11-19T22:29:45.151Z,39.15
2022-11-19T22:32:17.906Z,38.83
2022-11-19T22:34:50.507Z,39.03
2022-11-19T22:37:23.350Z,39.30
2022-11-19T22:39:56.161Z,39.72
2022-11-19T22:42:28.841Z,41.60
2022-11-19T22:45:01.575Z,39.80
2022-11-19T22:47:34.231Z,42.38
2022-11-19T22:50:07.761Z,41.50
2022-11-19T22:52:40.592Z,47.22
2022-11-19T22:55:13.346Z,47.25
2022-11-19T22:57:46.098Z,44.70
2022-11-19T23:00:39.939Z,49.65
2022-11-19T23:03:13.365Z,44.63
2022-11-19T23:05:51.556Z,42.03
2022-11-19T23:08:24.324Z,44.83
2022-11-19T23:11:00.182Z,44.45
2022-11-19T23:13:39.582Z,42.00
2022-11-19T23:16:20.711Z,45.33
2022-11-19T23:18:53.588Z,43.70
2022-11-19T23:21:29.623Z,47.25
2022-11-19T23:24:03.256Z,48.50
2022-11-19T23:26:36.287Z,49.53
2022-11-19T23:29:09.479Z,47.13
2022-11-19T23:31:42.177Z,46.47
2022-11-19T23:34:14.907Z,55.85
2022-11-19T23:36:47.572Z,60.58
2022-11-19T23:39:20.757Z,54.65
2022-11-19T23:41:53.649Z,45.88
2022-11-19T23:44:26.223Z,44.20
2022-11-19T23:46:58.898Z,41.90
2022-11-19T23:49:31.521Z,45.25
2022-11-19T23:52:04.306Z,40.45
2022-11-19T23:54:36.852Z,42.33
2022-11-19T23:57:09.528Z,42.83
2022-11-19T23:59:44.293Z,43.50
